createdAt,value
2023-03-23T15:59:02.605Z,15.20
2023-03-23T16:01:31.577Z,15.20
2023-03-23T16:04:16.709Z,15.30
2023-03-23T16:06:44.110Z,15.40
2023-03-23T16:09:25.727Z,15.40
2023-03-23T16:12:03.687Z,15.40
2023-03-23T16:14:30.523Z,15.30
2023-03-23T16:17:03.773Z,15.30
2023-03-23T16:19:30.727Z,15.20
2023-03-23T16:21:57.824Z,15.10
2023-03-23T16:24:31.678Z,15.10
2023-03-23T16:26:58.646Z,15.00
2023-03-23T16:29:50.495Z,15.00
2023-03-23T16:32:18.939Z,14.90
2023-03-23T16:34:52.719Z,14.80
2023-03-23T16:37:21.776Z,14.80
2023-03-23T16:39:54.712Z,14.80
2023-03-23T16:42:27.717Z,14.90
2023-03-23T16:44:54.846Z,14.90
2023-03-23T16:47:25.392Z,14.80
2023-03-23T16:49:59.737Z,14.80
2023-03-23T16:52:33.726Z,14.80
2023-03-23T16:55:07.784Z,14.80
2023-03-23T16:57:37.296Z,14.80
2023-03-23T17:00:12.715Z,14.80
2023-03-23T17:02:42.253Z,14.80
2023-03-23T17:05:25.786Z,14.70
2023-03-23T17:07:55.172Z,14.60
2023-03-23T17:10:24.230Z,14.50
2023-03-23T17:12:57.751Z,14.50
2023-03-23T17:15:25.695Z,14.50
2023-03-23T17:18:01.821Z,14.40
2023-03-23T17:20:35.818Z,14.40
2023-03-23T17:23:03.823Z,14.30
2023-03-23T17:25:37.753Z,14.30
2023-03-23T17:28:11.873Z,14.20
2023-03-23T17:30:43.871Z,14.20
2023-03-23T17:33:18.796Z,14.20
2023-03-23T17:35:51.870Z,14.20
2023-03-23T17:38:25.824Z,14.20
2023-03-23T17:41:04.143Z,14.10
2023-03-23T17:43:37.796Z,14.10
2023-03-23T17:46:04.925Z,14.10
2023-03-23T17:48:37.828Z,14.00
2023-03-23T17:51:11.829Z,14.00
2023-03-23T17:53:38.713Z,14.00
2023-03-23T17:56:06.518Z,13.90
2023-03-23T17:58:39.826Z,13.90
2023-03-23T18:01:13.906Z,13.90
2023-03-23T18:03:46.872Z,13.80
2023-03-23T18:06:14.079Z,13.80
2023-03-23T18:08:47.859Z,13.80
2023-03-23T18:11:14.663Z,13.80
2023-03-23T18:13:47.915Z,13.80
2023-03-23T18:16:20.857Z,13.80
2023-03-23T18:18:47.665Z,13.80
2023-03-23T18:21:20.858Z,13.80
2023-03-23T18:23:58.339Z,13.80
2023-03-23T18:26:32.885Z,13.80
2023-03-23T18:28:59.844Z,13.80
2023-03-23T18:31:26.750Z,13.70
2023-03-23T18:34:02.888Z,13.70
2023-03-23T18:36:36.907Z,13.70
2023-03-23T18:39:05.554Z,13.60
2023-03-23T18:41:38.865Z,13.60
2023-03-23T18:44:26.867Z,13.50
2023-03-23T18:47:07.927Z,13.40
2023-03-23T18:49:34.702Z,13.20
2023-03-23T18:52:07.903Z,13.10
2023-03-23T18:54:35.115Z,13.00
2023-03-23T18:57:09.010Z,12.80
2023-03-23T18:59:36.034Z,12.70
2023-03-23T19:02:09.990Z,12.60
2023-03-23T19:04:44.079Z,12.60
2023-03-23T19:07:12.864Z,12.50
2023-03-23T19:09:47.935Z,12.50
2023-03-23T19:12:15.985Z,12.40
2023-03-23T19:14:57.946Z,12.40
2023-03-23T19:17:25.931Z,12.40
2023-03-23T19:19:58.971Z,12.30
2023-03-23T19:22:25.839Z,12.30
2023-03-23T19:24:58.997Z,12.30
2023-03-23T19:27:33.021Z,12.30
2023-03-23T19:30:06.041Z,12.20
2023-03-23T19:32:34.074Z,12.20
2023-03-23T19:35:13.973Z,12.20
2023-03-23T19:37:46.985Z,12.20
2023-03-23T19:40:37.445Z,12.20
2023-03-23T19:43:08.455Z,12.20
2023-03-23T19:45:42.329Z,12.10
2023-03-23T19:50:45.324Z,12.10
2023-03-23T19:53:15.831Z,12.10
2023-03-23T19:55:49.199Z,12.10
2023-03-23T19:58:16.549Z,12.10
2023-03-23T20:00:50.662Z,12.10
2023-03-23T20:03:18.030Z,12.10
2023-03-23T20:05:48.353Z,12.00
2023-03-23T20:08:23.050Z,12.00
2023-03-23T20:10:57.086Z,12.00
2023-03-23T20:13:28.660Z,12.00
2023-03-23T20:16:02.061Z,12.00
2023-03-23T20:21:12.280Z,11.90
2023-03-23T20:23:47.186Z,11.90
2023-03-23T20:26:17.776Z,11.90
2023-03-23T20:28:52.309Z,11.90
2023-03-23T20:31:26.526Z,11.80
2023-03-23T20:34:08.105Z,11.80
2023-03-23T20:36:42.386Z,11.80
2023-03-23T20:39:20.112Z,11.80
2023-03-23T20:41:55.056Z,11.80
2023-03-23T20:44:25.151Z,11.80
2023-03-23T20:47:00.148Z,11.70
2023-03-23T20:49:34.100Z,11.70
2023-03-23T20:52:02.204Z,11.70
2023-03-23T20:54:35.236Z,11.70
2023-03-23T20:57:02.769Z,11.80
2023-03-23T20:59:36.177Z,11.70
2023-03-23T21:02:04.747Z,11.80
2023-03-23T21:04:31.819Z,11.70
2023-03-23T21:07:07.141Z,11.80
2023-03-23T21:09:41.273Z,11.80
2023-03-23T21:12:09.625Z,11.80
2023-03-23T21:14:38.949Z,11.80
2023-03-23T21:17:14.202Z,11.80
2023-03-23T21:19:48.344Z,11.80
2023-03-23T21:22:18.880Z,11.70
2023-03-23T21:24:46.521Z,11.70
2023-03-23T21:27:21.221Z,11.70
2023-03-23T21:29:48.818Z,11.70
2023-03-23T21:32:22.244Z,11.70
2023-03-23T21:34:56.207Z,11.70
2023-03-23T21:37:35.227Z,11.70
2023-03-23T21:40:10.313Z,11.70
2023-03-23T21:42:37.879Z,11.70
2023-03-23T21:45:06.072Z,11.70
2023-03-23T21:47:39.251Z,11.70
2023-03-23T21:50:13.285Z,11.70
2023-03-23T21:52:43.349Z,11.70
2023-03-23T21:55:13.114Z,11.70
2023-03-23T21:57:50.276Z,11.70
2023-03-23T22:00:25.235Z,11.60
2023-03-23T22:03:01.283Z,11.60
2023-03-23T22:05:35.208Z,11.60
2023-03-23T22:08:09.231Z,11.60
2023-03-23T22:10:41.183Z,11.60
2023-03-23T22:13:08.386Z,11.60
2023-03-23T22:15:42.214Z,11.60
2023-03-23T22:18:09.143Z,11.60
2023-03-23T22:20:42.260Z,11.50
2023-03-23T22:23:09.780Z,11.60
2023-03-23T22:25:43.199Z,11.50
2023-03-23T22:28:10.130Z,11.50
2023-03-23T22:30:44.492Z,11.50
2023-03-23T22:33:11.887Z,11.50
2023-03-23T22:35:47.779Z,11.50
2023-03-23T22:38:14.988Z,11.50
2023-03-23T22:40:49.298Z,11.40
2023-03-23T22:43:17.109Z,11.40
2023-03-23T22:45:50.305Z,11.40
2023-03-23T22:48:18.056Z,11.30
2023-03-23T22:50:53.335Z,11.30
2023-03-23T22:53:21.579Z,11.30
2023-03-23T22:55:50.861Z,11.30
2023-03-23T22:58:32.307Z,11.30
2023-03-23T23:01:08.663Z,11.40
2023-03-23T23:03:43.403Z,11.30
2023-03-23T23:06:12.474Z,11.30
2023-03-23T23:08:46.297Z,11.30
2023-03-23T23:11:16.207Z,11.30
2023-03-23T23:13:43.258Z,11.30
2023-03-23T23:16:18.468Z,11.30
2023-03-23T23:18:54.366Z,11.30
2023-03-23T23:21:23.669Z,11.30
2023-03-23T23:23:58.322Z,11.30
2023-03-23T23:26:25.268Z,11.30
2023-03-23T23:28:59.331Z,11.30
2023-03-23T23:31:38.368Z,11.30
2023-03-23T23:34:05.707Z,11.30
2023-03-23T23:36:39.337Z,11.30
2023-03-23T23:39:06.748Z,11.30
2023-03-23T23:41:41.392Z,11.30
2023-03-23T23:44:08.499Z,11.30
2023-03-23T23:46:43.396Z,11.30
2023-03-23T23:49:16.405Z,11.40
2023-03-23T23:51:44.738Z,11.30
2023-03-23T23:54:21.382Z,11.40
2023-03-23T23:56:51.565Z,11.30
2023-03-23T23:59:25.369Z,11.30
